Aragon, New Mexico
Current Conditions -  °F | °C
As of 2:55 PM on Sunday 23 Nov 2014 (Local Time) from KJTC Reporting Station
Clear Clear  
Wind Chill: 28°   Ceiling: Unl
Heat Index: 39°   Visibility: 10mi
Dew Point: -6°   Wind: 24mph
Humidity: 15%   Direction: 320°NW
Pressure: 30.08"   Gusts: 44mph
Location:  33.88°N, 108.54°W
Report Text: KJTC 232155Z AUTO 32021G38KT 10SM CLR 04/M21 A3008 RMK AO2
Loading
Personal Weather Stations






























Interactive Weather Map New forecast layout! Learn more

10-Day Weather Forecast

Advertisements
Track Severe Weather on mobile